createdAt,value
2022-07-27T00:02:07.152Z,101562.31
2022-07-27T00:04:34.867Z,101562.53
2022-07-27T00:07:02.762Z,101564.59
2022-07-27T00:09:30.315Z,101561.31
2022-07-27T00:11:57.900Z,101566.03
2022-07-27T00:14:26.994Z,101561.50
2022-07-27T00:16:54.570Z,101561.72
2022-07-27T00:19:23.801Z,101565.84
2022-07-27T00:21:51.383Z,101562.34
2022-07-27T00:24:19.089Z,101559.88
2022-07-27T00:26:46.682Z,101555.94
2022-07-27T00:29:14.694Z,101553.03
2022-07-27T00:31:44.149Z,101558.41
2022-07-27T00:34:11.920Z,101560.91
2022-07-27T00:36:39.487Z,101560.91
2022-07-27T00:39:07.060Z,101564.22
2022-07-27T00:41:34.749Z,101561.94
2022-07-27T00:44:05.144Z,101564.81
2022-07-27T00:46:32.768Z,101566.47
2022-07-27T00:49:01.865Z,101571.00
2022-07-27T00:51:29.581Z,101568.31
2022-07-27T00:53:57.774Z,101561.94
2022-07-27T00:56:25.648Z,101562.34
2022-07-27T00:58:54.488Z,101562.56
2022-07-27T01:01:22.682Z,101558.22
2022-07-27T01:03:50.343Z,101556.97
2022-07-27T01:06:26.852Z,101552.22
2022-07-27T01:09:16.859Z,101563.16
2022-07-27T01:11:44.853Z,101556.75
2022-07-27T01:14:13.745Z,101562.75
2022-07-27T01:16:41.843Z,101558.84
2022-07-27T01:19:10.739Z,101551.78
2022-07-27T01:21:40.149Z,101563.97
2022-07-27T01:24:08.586Z,101554.69
2022-07-27T01:26:36.693Z,101565.19
2022-07-27T01:29:04.414Z,101562.28
2022-07-27T01:31:32.487Z,101553.59
2022-07-27T01:34:01.016Z,101556.72
2022-07-27T01:36:28.666Z,101559.41
2022-07-27T01:38:58.090Z,101562.06
2022-07-27T01:41:26.476Z,101559.78
2022-07-27T01:43:54.064Z,101565.34
2022-07-27T01:46:21.688Z,101561.44
2022-07-27T01:48:49.346Z,101554.59
2022-07-27T01:51:16.926Z,101548.63
2022-07-27T01:53:44.636Z,101550.09
2022-07-27T01:56:15.002Z,101540.59
2022-07-27T01:58:43.768Z,101538.91
2022-07-27T02:01:11.470Z,101545.53
2022-07-27T02:03:39.502Z,101546.94
2022-07-27T02:06:07.963Z,101535.97
2022-07-27T02:08:36.934Z,101537.25
2022-07-27T02:11:22.819Z,101539.09
2022-07-27T02:13:51.754Z,101527.50
2022-07-27T02:16:20.409Z,101514.72
2022-07-27T02:18:49.023Z,101520.50
2022-07-27T02:21:16.974Z,101517.38
2022-07-27T02:23:46.795Z,101520.25
2022-07-27T02:26:14.512Z,101527.69
2022-07-27T02:28:42.269Z,101525.00
2022-07-27T02:31:11.635Z,101528.28
2022-07-27T02:33:39.228Z,101525.19
2022-07-27T02:36:06.942Z,101524.19
2022-07-27T02:38:34.531Z,101525.03
2022-07-27T02:41:02.102Z,101529.16
2022-07-27T02:43:31.721Z,101533.69
2022-07-27T02:45:59.366Z,101525.84
2022-07-27T02:48:28.330Z,101533.06
2022-07-27T02:51:00.331Z,101527.88
2022-07-27T02:53:27.952Z,101531.22
2022-07-27T02:55:55.528Z,101539.25
2022-07-27T02:58:23.613Z,101534.50
2022-07-27T03:00:57.850Z,101533.09
2022-07-27T03:03:36.018Z,101536.22
2022-07-27T03:06:06.685Z,101538.31
2022-07-27T03:08:34.473Z,101531.28
2022-07-27T03:11:02.110Z,101536.03
2022-07-27T03:13:29.955Z,101541.56
2022-07-27T03:15:58.218Z,101536.84
2022-07-27T03:18:26.047Z,101534.38
2022-07-27T03:20:53.626Z,101532.31
2022-07-27T03:23:22.561Z,101535.00
2022-07-27T03:25:50.132Z,101526.94
2022-07-27T03:28:17.721Z,101525.91
2022-07-27T03:30:45.360Z,101533.53
2022-07-27T03:33:12.985Z,101534.34
2022-07-27T03:35:40.573Z,101533.75
2022-07-27T03:38:08.161Z,101538.50
2022-07-27T03:40:40.868Z,101542.84
2022-07-27T03:43:08.717Z,101535.63
2022-07-27T03:45:36.465Z,101541.59
2022-07-27T03:48:04.216Z,101537.06
2022-07-27T03:50:31.838Z,101532.09
2022-07-27T03:52:59.427Z,101533.78
2022-07-27T03:55:27.593Z,101530.66
2022-07-27T03:57:56.726Z,101534.56
2022-07-27T04:00:24.481Z,101534.94
2022-07-27T04:02:53.467Z,101547.09
2022-07-27T04:05:21.739Z,101548.91
2022-07-27T04:07:49.921Z,101545.63
2022-07-27T04:10:22.898Z,101554.09
2022-07-27T04:12:50.547Z,101551.63
2022-07-27T04:15:21.391Z,101553.47
2022-07-27T04:17:55.151Z,101555.38
2022-07-27T04:20:24.251Z,101558.19
2022-07-27T04:22:51.828Z,101556.16
2022-07-27T04:25:19.445Z,101555.94
2022-07-27T04:27:47.143Z,101551.19
2022-07-27T04:30:15.100Z,101542.22
2022-07-27T04:32:44.043Z,101554.19
2022-07-27T04:35:12.081Z,101548.44
2022-07-27T04:37:40.016Z,101538.97
2022-07-27T04:40:25.474Z,101545.22
2022-07-27T04:42:53.030Z,101544.59
2022-07-27T04:45:20.739Z,101553.69
2022-07-27T04:47:49.683Z,101549.13
2022-07-27T04:50:17.524Z,101548.13
2022-07-27T04:52:45.234Z,101552.66
2022-07-27T04:55:13.383Z,101550.81
2022-07-27T04:57:41.929Z,101555.34
2022-07-27T05:00:11.815Z,101555.34
2022-07-27T05:02:40.744Z,101556.59
2022-07-27T05:05:11.334Z,101560.75
2022-07-27T05:07:38.907Z,101565.88
2022-07-27T05:10:07.090Z,101570.63
2022-07-27T05:12:34.667Z,101570.84
2022-07-27T05:15:02.257Z,101566.91
2022-07-27T05:17:29.845Z,101570.81
2022-07-27T05:19:57.440Z,101580.56
2022-07-27T05:22:26.348Z,101575.38
2022-07-27T05:24:54.269Z,101576.00
2022-07-27T05:27:21.939Z,101579.31
2022-07-27T05:29:49.848Z,101584.91
2022-07-27T05:32:17.539Z,101577.25
2022-07-27T05:34:46.023Z,101581.84
2022-07-27T05:37:14.042Z,101580.13
2022-07-27T05:39:43.406Z,101591.91
2022-07-27T05:42:11.102Z,101584.84
2022-07-27T05:44:38.706Z,101581.03
2022-07-27T05:47:06.562Z,101587.31
2022-07-27T05:49:34.281Z,101586.88
2022-07-27T05:52:01.973Z,101589.34
2022-07-27T05:54:29.522Z,101596.19
2022-07-27T05:56:59.857Z,101604.94
2022-07-27T05:59:28.057Z,101596.44
2022-07-27T06:01:55.891Z,101585.31
2022-07-27T06:04:23.482Z,101612.81
2022-07-27T06:07:08.503Z,101610.13
2022-07-27T06:09:36.106Z,101606.41
2022-07-27T06:12:05.344Z,101604.97
2022-07-27T06:14:33.533Z,101605.16
2022-07-27T06:17:01.181Z,101611.31
2022-07-27T06:19:36.173Z,101610.88
2022-07-27T06:22:04.450Z,101614.19
2022-07-27T06:24:32.032Z,101609.22
2022-07-27T06:26:59.622Z,101608.97
2022-07-27T06:29:28.649Z,101603.25
2022-07-27T06:31:56.296Z,101612.88
2022-07-27T06:34:23.940Z,101618.41
2022-07-27T06:36:52.902Z,101626.69
2022-07-27T06:39:20.971Z,101607.38
2022-07-27T06:41:48.946Z,101613.88
2022-07-27T06:44:16.533Z,101611.69
2022-07-27T06:46:45.547Z,101607.00
2022-07-27T06:49:13.691Z,101613.94
2022-07-27T06:51:41.745Z,101613.78
2022-07-27T06:54:09.397Z,101624.47
2022-07-27T06:56:36.995Z,101613.34
2022-07-27T06:59:04.671Z,101624.47
2022-07-27T07:01:32.321Z,101620.41
2022-07-27T07:04:01.359Z,101626.19
2022-07-27T07:06:28.994Z,101620.75
2022-07-27T07:08:56.574Z,101628.78
2022-07-27T07:11:24.174Z,101634.97
2022-07-27T07:13:51.761Z,101623.53
2022-07-27T07:16:19.421Z,101639.47
2022-07-27T07:18:52.024Z,101650.34
2022-07-27T07:21:21.941Z,101657.97
2022-07-27T07:23:50.130Z,101651.56
2022-07-27T07:26:17.689Z,101662.13
2022-07-27T07:28:45.290Z,101663.25
2022-07-27T07:31:12.958Z,101660.56
2022-07-27T07:33:40.597Z,101659.50
2022-07-27T07:36:12.182Z,101662.22
2022-07-27T07:38:43.262Z,101673.00
2022-07-27T07:41:10.995Z,101676.06
2022-07-27T07:43:39.741Z,101671.75
2022-07-27T07:46:08.597Z,101669.00
2022-07-27T07:48:36.426Z,101670.44
2022-07-27T07:51:04.245Z,101682.22
2022-07-27T07:53:31.910Z,101682.03
2022-07-27T07:56:00.853Z,101680.03
2022-07-27T07:58:28.771Z,101687.25
2022-07-27T08:00:56.344Z,101686.84
2022-07-27T08:03:24.078Z,101678.38
2022-07-27T08:05:51.811Z,101693.69
2022-07-27T08:08:19.382Z,101703.19
2022-07-27T08:10:47.914Z,101702.78
2022-07-27T08:13:21.848Z,101696.75
2022-07-27T08:15:50.398Z,101705.06
2022-07-27T08:18:17.974Z,101688.31
2022-07-27T08:20:45.940Z,101683.91
2022-07-27T08:23:13.720Z,101701.13
2022-07-27T08:25:42.359Z,101704.81
2022-07-27T08:28:10.180Z,101706.19
2022-07-27T08:30:39.158Z,101694.75
2022-07-27T08:33:07.413Z,101702.75
2022-07-27T08:35:36.186Z,101698.41
2022-07-27T08:38:06.704Z,101701.97
2022-07-27T08:40:45.190Z,101700.09
2022-07-27T08:43:21.872Z,101707.44
2022-07-27T08:45:58.169Z,101702.53
2022-07-27T08:48:27.534Z,101703.03
2022-07-27T08:50:55.141Z,101708.75
2022-07-27T08:53:23.478Z,101711.41
2022-07-27T08:55:51.586Z,101709.16
2022-07-27T08:58:19.412Z,101700.59
2022-07-27T09:00:49.678Z,101707.31
2022-07-27T09:03:21.518Z,101703.91
2022-07-27T09:05:52.173Z,101713.28
2022-07-27T09:08:23.975Z,101702.28
2022-07-27T09:10:52.671Z,101704.94
2022-07-27T09:13:23.335Z,101717.06
2022-07-27T09:16:16.713Z,101718.09
2022-07-27T09:18:42.984Z,101719.19
2022-07-27T09:21:12.797Z,101720.19
2022-07-27T09:23:41.689Z,101716.00
2022-07-27T09:26:31.066Z,101708.66
2022-07-27T09:29:02.403Z,101717.03
2022-07-27T09:31:30.491Z,101709.78
2022-07-27T09:34:01.355Z,101723.06
2022-07-27T09:36:31.385Z,101718.41
2022-07-27T09:39:03.389Z,101708.88
2022-07-27T09:41:41.627Z,101702.34
2022-07-27T09:46:57.662Z,101710.63
2022-07-27T09:49:32.084Z,101709.19
2022-07-27T09:52:02.305Z,101711.97
2022-07-27T09:54:44.342Z,101711.75
2022-07-27T09:57:12.316Z,101711.25
2022-07-27T09:59:40.230Z,101715.25
2022-07-27T10:02:08.204Z,101703.72
2022-07-27T10:04:37.226Z,101720.38
2022-07-27T10:07:08.274Z,101709.00
2022-07-27T10:09:37.158Z,101709.88
2022-07-27T10:12:05.398Z,101713.13
2022-07-27T10:14:33.498Z,101707.97
2022-07-27T10:17:02.387Z,101717.16
2022-07-27T10:19:35.151Z,101722.47
2022-07-27T10:22:04.143Z,101723.97
2022-07-27T10:24:34.789Z,101723.00
2022-07-27T10:27:19.998Z,101716.56
2022-07-27T10:29:48.366Z,101709.81
2022-07-27T10:32:24.689Z,101718.91
2022-07-27T10:34:52.306Z,101711.78
2022-07-27T10:37:27.745Z,101733.09
2022-07-27T10:40:16.960Z,101725.19
2022-07-27T10:42:49.031Z,101725.34
2022-07-27T10:45:21.116Z,101723.66
2022-07-27T10:47:50.545Z,101725.34
2022-07-27T10:50:30.782Z,101737.06
2022-07-27T10:53:03.155Z,101744.06
2022-07-27T10:55:47.237Z,101748.94
2022-07-27T10:58:46.570Z,101753.50
2022-07-27T11:01:15.791Z,101748.28
2022-07-27T11:03:49.408Z,101756.50
2022-07-27T11:06:33.207Z,101743.00
2022-07-27T11:09:53.218Z,101759.69
2022-07-27T11:11:53.397Z,101756.72
2022-07-27T11:14:30.126Z,101754.47
2022-07-27T11:17:07.909Z,101749.75
2022-07-27T11:19:52.175Z,101744.34
2022-07-27T11:22:50.146Z,101740.28
2022-07-27T11:25:19.123Z,101742.38
2022-07-27T11:27:48.646Z,101743.59
2022-07-27T11:30:22.996Z,101748.50
2022-07-27T11:32:50.847Z,101744.19
2022-07-27T11:35:20.124Z,101746.44
2022-07-27T11:37:59.937Z,101743.78
2022-07-27T11:43:33.653Z,101745.41
2022-07-27T11:46:12.728Z,101743.03
2022-07-27T11:49:05.355Z,101761.09
2022-07-27T11:51:34.684Z,101753.66
2022-07-27T11:54:04.692Z,101752.72
2022-07-27T11:56:35.930Z,101744.66
2022-07-27T11:59:07.514Z,101759.38
2022-07-27T12:01:37.158Z,101757.56
2022-07-27T12:04:13.901Z,101755.16
2022-07-27T12:06:43.595Z,101755.03
2022-07-27T12:09:15.342Z,101765.50
2022-07-27T12:11:59.262Z,101773.47
2022-07-27T12:14:38.165Z,101755.16
2022-07-27T12:17:26.841Z,101762.53
2022-07-27T12:19:59.834Z,101774.84
2022-07-27T12:22:33.602Z,101757.94
2022-07-27T12:25:05.641Z,101763.59
2022-07-27T12:27:39.533Z,101762.25
2022-07-27T12:30:10.486Z,101772.38
2022-07-27T12:32:41.085Z,101761.63
2022-07-27T12:35:18.441Z,101773.72
2022-07-27T12:37:46.194Z,101774.34
2022-07-27T12:40:19.006Z,101774.09
2022-07-27T12:42:56.959Z,101779.13
2022-07-27T12:45:24.904Z,101781.66
2022-07-27T12:47:52.615Z,101775.91
2022-07-27T12:50:29.419Z,101770.78
2022-07-27T12:52:56.992Z,101773.91
2022-07-27T12:55:25.078Z,101779.69
2022-07-27T12:57:56.496Z,101774.53
2022-07-27T13:00:32.686Z,101769.66
2022-07-27T13:03:01.852Z,101769.28
2022-07-27T13:05:29.598Z,101777.72
2022-07-27T13:07:57.892Z,101783.78
2022-07-27T13:10:25.781Z,101780.03
2022-07-27T13:12:54.701Z,101783.00
2022-07-27T13:15:22.277Z,101785.13
2022-07-27T13:17:50.122Z,101786.19
2022-07-27T13:20:18.789Z,101778.63
2022-07-27T13:22:47.027Z,101792.38
2022-07-27T13:25:17.542Z,101774.53
2022-07-27T13:27:45.485Z,101780.41
2022-07-27T13:30:16.060Z,101788.59
2022-07-27T13:32:44.738Z,101787.84
2022-07-27T13:35:13.263Z,101795.34
2022-07-27T13:37:42.052Z,101797.53
2022-07-27T13:40:10.720Z,101799.50
2022-07-27T13:42:38.681Z,101790.88
2022-07-27T13:45:10.515Z,101796.78
2022-07-27T13:47:41.669Z,101796.34
2022-07-27T13:50:17.422Z,101794.25
2022-07-27T13:52:46.713Z,101796.59
2022-07-27T13:55:15.104Z,101798.28
2022-07-27T13:57:43.219Z,101798.72
2022-07-27T14:00:12.058Z,101792.63
2022-07-27T14:02:41.847Z,101794.50
2022-07-27T14:05:13.214Z,101795.41
2022-07-27T14:07:41.793Z,101793.09
2022-07-27T14:10:28.789Z,101798.47
2022-07-27T14:12:59.164Z,101800.00
2022-07-27T14:15:27.031Z,101794.44
2022-07-27T14:17:56.313Z,101801.94
2022-07-27T14:20:24.104Z,101805.09
2022-07-27T14:22:52.114Z,101806.66
2022-07-27T14:25:19.697Z,101808.09
2022-07-27T14:27:47.288Z,101816.56
2022-07-27T14:30:20.305Z,101819.19
2022-07-27T14:32:48.665Z,101812.59
2022-07-27T14:35:17.621Z,101817.34
2022-07-27T14:37:45.734Z,101810.31
2022-07-27T14:40:14.350Z,101802.50
2022-07-27T14:42:41.949Z,101806.13
2022-07-27T14:45:10.238Z,101798.00
2022-07-27T14:47:37.829Z,101797.56
2022-07-27T14:50:08.003Z,101802.13
2022-07-27T14:52:37.112Z,101802.97
2022-07-27T14:55:05.150Z,101809.72
2022-07-27T14:57:33.092Z,101800.75
2022-07-27T15:00:01.213Z,101796.53
2022-07-27T15:02:28.834Z,101803.00
2022-07-27T15:04:56.413Z,101796.06
2022-07-27T15:07:24.022Z,101802.13
2022-07-27T15:09:52.965Z,101793.09
2022-07-27T15:12:20.542Z,101786.81
2022-07-27T15:14:48.209Z,101798.94
2022-07-27T15:17:16.342Z,101791.28
2022-07-27T15:19:44.274Z,101787.59
2022-07-27T15:22:12.253Z,101796.91
2022-07-27T15:24:39.934Z,101785.56
2022-07-27T15:27:09.330Z,101799.78
2022-07-27T15:29:37.259Z,101802.28
2022-07-27T15:32:04.958Z,101805.00
2022-07-27T15:34:32.549Z,101801.75
2022-07-27T15:37:00.122Z,101798.38
2022-07-27T15:39:27.714Z,101799.09
2022-07-27T15:41:55.285Z,101798.88
2022-07-27T15:44:24.182Z,101798.06
2022-07-27T15:46:51.816Z,101796.97
2022-07-27T15:49:19.619Z,101802.19
2022-07-27T15:51:48.055Z,101793.50
2022-07-27T15:54:15.662Z,101791.03
2022-07-27T15:56:43.305Z,101794.59
2022-07-27T15:59:11.314Z,101797.69
2022-07-27T16:01:40.551Z,101799.13
2022-07-27T16:04:09.069Z,101797.47
2022-07-27T16:06:39.369Z,101803.09
2022-07-27T16:09:09.248Z,101799.19
2022-07-27T16:11:37.970Z,101806.50
2022-07-27T16:14:05.513Z,101801.41
2022-07-27T16:16:33.318Z,101814.66
2022-07-27T16:19:12.606Z,101809.47
2022-07-27T16:21:53.878Z,101797.41
2022-07-27T16:24:23.650Z,101794.25
2022-07-27T16:26:51.320Z,101799.41
2022-07-27T16:29:19.133Z,101793.97
2022-07-27T16:31:46.829Z,101799.88
2022-07-27T16:34:15.837Z,101803.22
2022-07-27T16:36:43.395Z,101791.41
2022-07-27T16:39:11.369Z,101799.75
2022-07-27T16:41:39.421Z,101788.97
2022-07-27T16:44:07.025Z,101792.13
2022-07-27T16:46:34.656Z,101803.63
2022-07-27T16:49:02.303Z,101802.44
2022-07-27T16:51:31.350Z,101791.94
2022-07-27T16:53:58.897Z,101794.03
2022-07-27T16:56:26.554Z,101798.78
2022-07-27T16:58:54.133Z,101807.91
2022-07-27T17:01:26.797Z,101807.47
2022-07-27T17:03:55.270Z,101807.28
2022-07-27T17:06:23.021Z,101800.69
2022-07-27T17:08:52.405Z,101799.38
2022-07-27T17:11:20.847Z,101792.38
2022-07-27T17:13:50.129Z,101784.28
2022-07-27T17:16:18.156Z,101797.34
2022-07-27T17:18:45.910Z,101799.59
2022-07-27T17:21:13.542Z,101791.13
2022-07-27T17:23:41.682Z,101804.59
2022-07-27T17:26:12.093Z,101813.53
2022-07-27T17:28:40.466Z,101799.66
2022-07-27T17:31:09.610Z,101810.19
2022-07-27T17:33:37.810Z,101813.91
2022-07-27T17:36:08.530Z,101797.16
2022-07-27T17:38:41.878Z,101796.94
2022-07-27T17:41:10.847Z,101807.72
2022-07-27T17:43:39.347Z,101809.78
2022-07-27T17:46:07.382Z,101809.78
2022-07-27T17:48:35.320Z,101814.13
2022-07-27T17:51:03.465Z,101815.78
2022-07-27T17:53:31.081Z,101816.59
2022-07-27T17:55:58.737Z,101812.03
2022-07-27T17:58:30.214Z,101818.66
2022-07-27T18:00:58.284Z,101816.81
2022-07-27T18:03:25.870Z,101815.56
2022-07-27T18:05:53.589Z,101823.22
2022-07-27T18:08:21.151Z,101823.44
2022-07-27T18:10:51.345Z,101830.88
2022-07-27T18:13:18.985Z,101828.59
2022-07-27T18:15:48.083Z,101827.34
2022-07-27T18:18:16.573Z,101837.69
2022-07-27T18:20:46.108Z,101833.56
2022-07-27T18:23:14.078Z,101832.97
2022-07-27T18:25:41.997Z,101834.59
2022-07-27T18:28:09.545Z,101832.31
2022-07-27T18:30:37.571Z,101845.97
2022-07-27T18:33:06.662Z,101844.69
2022-07-27T18:35:34.221Z,101843.91
2022-07-27T18:38:01.794Z,101853.38
2022-07-27T18:40:29.722Z,101857.31
2022-07-27T18:42:57.253Z,101851.47
2022-07-27T18:45:34.634Z,101857.28
2022-07-27T18:48:02.794Z,101857.31
2022-07-27T18:50:35.651Z,101858.34
2022-07-27T18:53:06.923Z,101863.72
2022-07-27T18:55:34.839Z,101861.44
2022-07-27T18:58:02.449Z,101851.69
2022-07-27T19:00:30.590Z,101859.13
2022-07-27T19:02:58.765Z,101863.22
2022-07-27T19:05:31.539Z,101856.38
2022-07-27T19:08:11.476Z,101858.66
2022-07-27T19:10:41.382Z,101862.16
2022-07-27T19:13:11.603Z,101867.09
2022-07-27T19:15:40.015Z,101873.03
2022-07-27T19:18:08.747Z,101877.84
2022-07-27T19:20:37.568Z,101877.84
2022-07-27T19:23:05.189Z,101876.59
2022-07-27T19:25:34.654Z,101885.91
2022-07-27T19:28:02.676Z,101882.59
2022-07-27T19:30:30.492Z,101887.97
2022-07-27T19:32:58.256Z,101886.53
2022-07-27T19:35:25.878Z,101887.34
2022-07-27T19:37:53.690Z,101889.59
2022-07-27T19:43:11.232Z,101899.91
2022-07-27T19:45:38.844Z,101898.31
2022-07-27T19:48:08.132Z,101894.97
2022-07-27T19:50:35.977Z,101892.06
2022-07-27T19:53:03.646Z,101887.53
2022-07-27T19:55:31.272Z,101890.63
2022-07-27T19:57:58.825Z,101887.50
2022-07-27T20:00:27.821Z,101892.81
2022-07-27T20:02:55.454Z,101887.81
2022-07-27T20:05:23.353Z,101890.50
2022-07-27T20:07:51.273Z,101889.28
2022-07-27T20:10:21.507Z,101889.88
2022-07-27T20:12:49.065Z,101894.63
2022-07-27T20:15:16.677Z,101903.13
2022-07-27T20:17:45.609Z,101898.53
2022-07-27T20:20:13.429Z,101898.94
2022-07-27T20:22:42.155Z,101898.72
2022-07-27T20:25:11.023Z,101900.78
2022-07-27T20:27:39.737Z,101902.81
2022-07-27T20:30:08.936Z,101900.28
2022-07-27T20:32:36.814Z,101897.59
2022-07-27T20:35:06.677Z,101895.25
2022-07-27T20:37:34.422Z,101897.09
2022-07-27T20:40:02.187Z,101895.63
2022-07-27T20:42:29.889Z,101904.44
2022-07-27T20:44:57.554Z,101904.19
2022-07-27T20:47:25.481Z,101910.78
2022-07-27T20:49:53.050Z,101912.84
2022-07-27T20:52:22.422Z,101913.28
2022-07-27T20:54:50.438Z,101913.47
2022-07-27T20:57:18.004Z,101914.28
2022-07-27T20:59:45.578Z,101922.59
2022-07-27T21:02:13.835Z,101912.34
2022-07-27T21:04:41.469Z,101919.41
2022-07-27T21:07:09.059Z,101921.78
2022-07-27T21:09:38.059Z,101917.84
2022-07-27T21:12:08.143Z,101924.91
2022-07-27T21:14:35.694Z,101919.31
2022-07-27T21:17:03.350Z,101918.75
2022-07-27T21:19:30.967Z,101925.41
2022-07-27T21:21:58.593Z,101926.84
2022-07-27T21:24:26.074Z,101921.03
2022-07-27T21:26:55.161Z,101927.81
2022-07-27T21:29:25.977Z,101927.81
2022-07-27T21:31:53.560Z,101929.88
2022-07-27T21:34:21.829Z,101936.66
2022-07-27T21:36:50.298Z,101936.66
2022-07-27T21:39:18.947Z,101936.03
2022-07-27T21:41:46.845Z,101935.81
2022-07-27T21:44:16.311Z,101942.88
2022-07-27T21:46:44.272Z,101935.81
2022-07-27T21:49:13.154Z,101939.72
2022-07-27T21:51:40.868Z,101944.28
2022-07-27T21:54:08.430Z,101947.78
2022-07-27T21:56:40.863Z,101948.00
2022-07-27T21:59:10.078Z,101948.44
2022-07-27T22:01:39.077Z,101943.69
2022-07-27T22:04:07.193Z,101947.22
2022-07-27T22:06:35.790Z,101948.06
2022-07-27T22:09:03.530Z,101953.22
2022-07-27T22:11:31.129Z,101952.59
2022-07-27T22:13:58.719Z,101955.28
2022-07-27T22:16:26.362Z,101952.97
2022-07-27T22:18:56.701Z,101959.38
2022-07-27T22:21:24.365Z,101951.69
2022-07-27T22:23:52.156Z,101955.81
2022-07-27T22:26:20.025Z,101952.88
2022-07-27T22:28:47.934Z,101955.09
2022-07-27T22:31:22.375Z,101954.03
2022-07-27T22:33:51.302Z,101962.47
2022-07-27T22:36:20.599Z,101960.38
2022-07-27T22:38:48.297Z,101963.84
2022-07-27T22:41:16.003Z,101972.44
2022-07-27T22:43:43.556Z,101975.25
2022-07-27T22:46:11.180Z,101976.19
2022-07-27T22:48:39.129Z,101969.72
2022-07-27T22:51:07.656Z,101963.66
2022-07-27T22:53:38.438Z,101970.81
2022-07-27T22:56:06.260Z,101976.09
2022-07-27T22:58:33.935Z,101972.03
2022-07-27T23:01:01.580Z,101965.78
2022-07-27T23:03:29.302Z,101973.53
2022-07-27T23:05:56.869Z,101971.44
2022-07-27T23:08:24.433Z,101974.47
2022-07-27T23:10:53.380Z,101976.53
2022-07-27T23:13:22.794Z,101978.53
2022-07-27T23:15:50.963Z,101967.56
2022-07-27T23:18:18.964Z,101967.09
2022-07-27T23:20:46.596Z,101969.31
2022-07-27T23:23:16.213Z,101972.56
2022-07-27T23:25:44.725Z,101967.75
2022-07-27T23:28:13.701Z,101960.44
2022-07-27T23:30:41.317Z,101960.38
2022-07-27T23:33:08.893Z,101956.59
2022-07-27T23:35:36.464Z,101952.34
2022-07-27T23:38:04.132Z,101950.19
2022-07-27T23:40:31.759Z,101950.44
2022-07-27T23:42:59.381Z,101951.16
2022-07-27T23:45:28.437Z,101957.44
2022-07-27T23:47:56.072Z,101951.81
2022-07-27T23:50:24.250Z,101960.56
2022-07-27T23:52:51.853Z,101947.91
2022-07-27T23:55:19.489Z,101948.63
2022-07-27T23:57:47.242Z,101945.28
